createdAt,value
2022-10-22T00:00:31.929Z,12.20
2022-10-22T00:02:58.644Z,12.20
2022-10-22T00:05:25.878Z,12.20
2022-10-22T00:07:52.540Z,12.20
2022-10-22T00:10:19.336Z,12.20
2022-10-22T00:12:46.041Z,12.20
2022-10-22T00:15:13.017Z,12.20
2022-10-22T00:17:39.979Z,12.20
2022-10-22T00:20:07.181Z,12.30
2022-10-22T00:22:33.879Z,12.20
2022-10-22T00:25:00.593Z,12.30
2022-10-22T00:27:27.281Z,12.30
2022-10-22T00:29:53.973Z,12.30
2022-10-22T00:32:20.677Z,12.30
2022-10-22T00:34:47.385Z,12.30
2022-10-22T00:37:14.106Z,12.30
2022-10-22T00:39:40.956Z,12.30
2022-10-22T00:42:07.703Z,12.30
2022-10-22T00:44:52.909Z,12.20
2022-10-22T00:47:20.063Z,12.30
2022-10-22T00:49:46.978Z,12.20
2022-10-22T00:52:14.165Z,12.20
2022-10-22T00:54:41.508Z,12.20
2022-10-22T00:57:08.251Z,12.20
2022-10-22T00:59:35.540Z,12.20
2022-10-22T01:02:02.291Z,12.10
2022-10-22T01:04:28.943Z,12.10
2022-10-22T01:06:55.692Z,12.10
2022-10-22T01:09:22.366Z,12.00
2022-10-22T01:11:49.004Z,12.10
2022-10-22T01:14:21.848Z,12.10
2022-10-22T01:16:54.538Z,12.00
2022-10-22T01:19:29.305Z,12.00
2022-10-22T01:22:03.953Z,12.00
2022-10-22T01:24:41.970Z,12.00
2022-10-22T01:27:11.728Z,12.10
2022-10-22T01:29:38.459Z,12.00
2022-10-22T01:32:08.141Z,12.00
2022-10-22T01:34:34.994Z,12.00
2022-10-22T01:37:02.727Z,12.00
2022-10-22T01:39:30.687Z,12.00
2022-10-22T01:41:57.533Z,12.00
2022-10-22T01:44:25.141Z,12.00
2022-10-22T01:46:54.781Z,12.00
2022-10-22T01:49:27.603Z,12.00
2022-10-22T01:51:57.392Z,12.00
2022-10-22T01:54:27.478Z,12.00
2022-10-22T01:57:07.442Z,12.00
2022-10-22T01:59:37.118Z,12.00
2022-10-22T02:02:10.014Z,12.00
2022-10-22T02:05:09.255Z,12.10
2022-10-22T02:07:38.609Z,12.10
2022-10-22T02:10:07.561Z,12.10
2022-10-22T02:12:34.861Z,12.10
2022-10-22T02:15:02.556Z,12.10
2022-10-22T02:17:30.433Z,12.10
2022-10-22T02:20:06.401Z,12.10
2022-10-22T02:22:33.426Z,12.10
2022-10-22T02:25:00.302Z,12.10
2022-10-22T02:27:30.319Z,12.10
2022-10-22T02:30:02.898Z,12.10
2022-10-22T02:32:36.665Z,12.10
2022-10-22T02:35:05.637Z,12.10
2022-10-22T02:37:32.516Z,12.10
2022-10-22T02:39:59.210Z,12.10
2022-10-22T02:42:26.410Z,12.10
2022-10-22T02:44:53.170Z,12.00
2022-10-22T02:47:20.166Z,12.10
2022-10-22T02:49:47.071Z,12.10
2022-10-22T02:52:13.810Z,12.10
2022-10-22T02:54:40.542Z,12.10
2022-10-22T02:57:07.525Z,12.10
2022-10-22T02:59:34.365Z,12.10
2022-10-22T03:02:01.053Z,12.10
2022-10-22T03:04:27.790Z,12.10
2022-10-22T03:06:54.533Z,12.00
2022-10-22T03:09:24.161Z,12.00
2022-10-22T03:11:52.091Z,12.00
2022-10-22T03:14:18.792Z,12.00
2022-10-22T03:16:45.518Z,12.00
2022-10-22T03:19:12.225Z,12.00
2022-10-22T03:21:40.723Z,12.00
2022-10-22T03:24:14.837Z,12.00
2022-10-22T03:26:42.061Z,12.00
2022-10-22T03:29:10.225Z,12.00
2022-10-22T03:31:36.998Z,12.00
2022-10-22T03:34:03.677Z,11.90
2022-10-22T03:36:30.962Z,11.90
2022-10-22T03:38:57.661Z,11.90
2022-10-22T03:41:24.380Z,11.90
2022-10-22T03:43:53.114Z,11.90
2022-10-22T03:46:20.176Z,11.90
2022-10-22T03:48:47.161Z,11.90
2022-10-22T03:51:13.841Z,11.90
2022-10-22T03:53:40.496Z,11.90
2022-10-22T03:56:10.908Z,11.90
2022-10-22T03:58:38.731Z,11.90
2022-10-22T04:01:06.331Z,11.90
2022-10-22T04:03:33.185Z,11.90
2022-10-22T04:06:03.462Z,11.90
2022-10-22T04:08:30.259Z,11.90
2022-10-22T04:10:57.001Z,11.90
2022-10-22T04:13:23.871Z,11.90
2022-10-22T04:15:52.066Z,12.00
2022-10-22T04:18:19.571Z,12.00
2022-10-22T04:20:46.364Z,11.90
2022-10-22T04:23:13.546Z,12.00
2022-10-22T04:25:40.787Z,11.90
2022-10-22T04:28:08.351Z,11.90
2022-10-22T04:30:35.542Z,11.90
2022-10-22T04:33:02.770Z,11.90
2022-10-22T04:35:29.649Z,11.90
2022-10-22T04:37:56.439Z,11.90
2022-10-22T04:40:23.146Z,11.90
2022-10-22T04:42:49.840Z,11.90
2022-10-22T04:45:16.553Z,11.90
2022-10-22T04:47:43.576Z,11.90
2022-10-22T04:50:10.438Z,11.80
2022-10-22T04:52:37.135Z,11.80
2022-10-22T04:55:04.022Z,11.80
2022-10-22T04:57:31.232Z,11.80
2022-10-22T04:59:57.906Z,11.70
2022-10-22T05:02:24.694Z,11.70
2022-10-22T05:04:51.409Z,11.70
2022-10-22T05:07:18.122Z,11.70
2022-10-22T05:09:44.821Z,11.60
2022-10-22T05:12:11.524Z,11.60
2022-10-22T05:14:42.584Z,11.60
2022-10-22T05:17:11.535Z,11.50
2022-10-22T05:19:38.290Z,11.50
2022-10-22T05:22:05.412Z,11.50
2022-10-22T05:24:32.990Z,11.50
2022-10-22T05:27:00.290Z,11.50
2022-10-22T05:29:27.316Z,11.50
2022-10-22T05:31:54.016Z,11.50
2022-10-22T05:34:20.697Z,11.50
2022-10-22T05:36:47.405Z,11.40
2022-10-22T05:39:14.095Z,11.40
2022-10-22T05:41:41.246Z,11.50
2022-10-22T05:44:07.980Z,11.50
2022-10-22T05:46:35.690Z,11.50
2022-10-22T05:49:03.661Z,11.50
2022-10-22T05:51:31.326Z,11.50
2022-10-22T05:53:59.497Z,11.40
2022-10-22T05:56:27.280Z,11.50
2022-10-22T05:58:54.436Z,11.50
2022-10-22T06:01:22.546Z,11.50
2022-10-22T06:03:49.641Z,11.50
2022-10-22T06:06:20.617Z,11.50
2022-10-22T06:08:48.443Z,11.50
2022-10-22T06:11:17.828Z,11.50
2022-10-22T06:13:45.190Z,11.50
2022-10-22T06:16:12.364Z,11.50
2022-10-22T06:18:39.034Z,11.50
2022-10-22T06:21:07.301Z,11.50
2022-10-22T06:23:34.077Z,11.50
2022-10-22T06:26:00.852Z,11.50
2022-10-22T06:28:27.662Z,11.60
2022-10-22T06:30:54.368Z,11.60
2022-10-22T06:33:21.059Z,11.70
2022-10-22T06:35:48.582Z,11.70
2022-10-22T06:38:15.404Z,11.70
2022-10-22T06:40:45.095Z,11.80
2022-10-22T06:43:12.514Z,11.90
2022-10-22T06:45:39.240Z,12.00
2022-10-22T06:48:06.202Z,12.00
2022-10-22T06:50:36.182Z,12.10
2022-10-22T06:53:03.061Z,12.30
2022-10-22T06:55:29.760Z,12.50
2022-10-22T06:57:56.429Z,12.80
2022-10-22T07:00:23.336Z,13.20
2022-10-22T07:02:56.393Z,13.60
2022-10-22T07:05:25.839Z,13.90
2022-10-22T07:07:52.506Z,14.10
2022-10-22T07:10:19.196Z,14.40
2022-10-22T07:12:45.893Z,14.50
2022-10-22T07:15:12.634Z,14.50
2022-10-22T07:20:07.181Z,14.50
2022-10-22T07:22:33.955Z,14.30
2022-10-22T07:25:05.177Z,14.10
2022-10-22T07:27:34.118Z,13.90
2022-10-22T07:30:01.528Z,13.70
2022-10-22T07:32:28.299Z,13.60
2022-10-22T07:34:55.009Z,13.50
2022-10-22T07:37:22.168Z,13.50
2022-10-22T07:39:49.353Z,13.60
2022-10-22T07:42:16.383Z,13.60
2022-10-22T07:44:43.192Z,13.70
2022-10-22T07:47:09.908Z,13.70
2022-10-22T07:49:36.601Z,13.70
2022-10-22T07:52:03.354Z,13.70
2022-10-22T07:54:30.111Z,13.90
2022-10-22T07:56:56.853Z,13.90
2022-10-22T07:59:23.585Z,13.90
2022-10-22T08:01:50.256Z,13.90
2022-10-22T08:04:16.953Z,14.00
2022-10-22T08:06:47.173Z,14.00
2022-10-22T08:09:14.183Z,14.00
2022-10-22T08:11:40.893Z,14.00
2022-10-22T08:14:07.636Z,14.00
2022-10-22T08:16:34.406Z,14.00
2022-10-22T08:19:01.121Z,14.00
2022-10-22T08:21:27.869Z,14.00
2022-10-22T08:23:54.695Z,14.00
2022-10-22T08:26:21.480Z,13.90
2022-10-22T08:28:48.265Z,13.90
2022-10-22T08:31:15.085Z,13.90
2022-10-22T08:33:42.497Z,13.90
2022-10-22T08:36:09.398Z,13.90
2022-10-22T08:38:36.411Z,13.90
2022-10-22T08:41:11.589Z,13.90
2022-10-22T08:43:52.350Z,13.90
2022-10-22T08:46:37.653Z,13.90
2022-10-22T08:49:10.284Z,13.90
2022-10-22T08:51:40.441Z,13.90
2022-10-22T08:54:26.055Z,14.00
2022-10-22T08:56:59.333Z,14.10
2022-10-22T08:59:52.322Z,14.20
2022-10-22T09:02:18.962Z,14.20
2022-10-22T09:04:49.663Z,14.30
2022-10-22T09:07:16.434Z,14.30
2022-10-22T09:09:46.823Z,14.20
2022-10-22T09:12:19.437Z,14.20
2022-10-22T09:14:47.309Z,14.30
2022-10-22T09:17:35.388Z,14.30
2022-10-22T09:20:13.741Z,14.20
2022-10-22T09:22:53.006Z,14.20
2022-10-22T09:25:21.379Z,14.30
2022-10-22T09:27:49.204Z,14.40
2022-10-22T09:30:18.435Z,14.40
2022-10-22T09:32:45.230Z,14.40
2022-10-22T09:35:12.978Z,14.40
2022-10-22T09:37:50.248Z,14.40
2022-10-22T09:40:17.679Z,14.40
2022-10-22T09:42:46.160Z,14.40
2022-10-22T09:45:18.076Z,14.50
2022-10-22T09:48:00.960Z,14.50
2022-10-22T09:50:48.930Z,14.50
2022-10-22T09:53:15.600Z,14.50
2022-10-22T09:55:43.016Z,14.60
2022-10-22T09:58:13.470Z,14.60
2022-10-22T10:00:41.158Z,14.60
2022-10-22T10:03:15.471Z,14.70
2022-10-22T10:05:44.042Z,14.80
2022-10-22T10:08:15.060Z,14.70
2022-10-22T10:10:45.077Z,14.70
2022-10-22T10:13:17.554Z,14.80
2022-10-22T10:15:49.889Z,15.00
2022-10-22T10:18:31.810Z,15.00
2022-10-22T10:21:23.403Z,15.10
2022-10-22T10:24:16.415Z,15.10
2022-10-22T10:27:00.344Z,15.00
2022-10-22T10:29:50.339Z,15.20
2022-10-22T10:32:46.468Z,15.20
2022-10-22T10:35:35.398Z,15.20
2022-10-22T10:38:35.799Z,15.20
2022-10-22T10:41:08.114Z,15.20
2022-10-22T10:44:03.940Z,15.20
2022-10-22T10:47:12.489Z,15.20
2022-10-22T10:49:39.274Z,15.30
2022-10-22T10:52:34.654Z,15.30
2022-10-22T10:55:28.764Z,15.40
2022-10-22T10:58:17.482Z,15.40
2022-10-22T11:00:56.958Z,15.40
2022-10-22T11:03:43.761Z,15.40
2022-10-22T11:06:16.196Z,15.50
2022-10-22T11:08:55.132Z,15.50
2022-10-22T11:11:32.165Z,15.50
2022-10-22T11:14:24.235Z,15.50
2022-10-22T11:17:03.407Z,15.60
2022-10-22T11:20:00.249Z,15.70
2022-10-22T11:23:00.397Z,15.70
2022-10-22T11:25:35.107Z,15.70
2022-10-22T11:28:23.749Z,15.70
2022-10-22T11:30:55.078Z,15.70
2022-10-22T11:33:24.638Z,15.50
2022-10-22T11:35:52.627Z,15.50
2022-10-22T11:38:23.761Z,15.50
2022-10-22T11:41:01.311Z,15.50
2022-10-22T11:43:32.652Z,15.50
2022-10-22T11:46:25.736Z,15.40
2022-10-22T11:49:03.886Z,15.40
2022-10-22T11:51:38.024Z,15.40
2022-10-22T11:54:23.284Z,15.50
2022-10-22T11:56:52.754Z,15.50
2022-10-22T11:59:39.716Z,15.50
2022-10-22T12:02:25.022Z,15.50
2022-10-22T12:04:51.878Z,15.50
2022-10-22T12:07:35.553Z,15.50
2022-10-22T12:10:05.444Z,15.50
2022-10-22T12:12:35.908Z,15.60
2022-10-22T12:15:22.499Z,15.70
2022-10-22T12:17:49.214Z,15.60
2022-10-22T12:20:17.585Z,15.70
2022-10-22T12:22:44.599Z,15.70
2022-10-22T12:25:24.673Z,15.70
2022-10-22T12:27:57.525Z,15.70
2022-10-22T12:30:25.759Z,15.70
2022-10-22T12:32:54.315Z,15.80
2022-10-22T12:35:22.785Z,15.80
2022-10-22T12:37:54.314Z,15.90
2022-10-22T12:40:28.671Z,15.90
2022-10-22T12:42:56.671Z,16.00
2022-10-22T12:45:25.645Z,16.00
2022-10-22T12:47:59.767Z,16.10
2022-10-22T12:50:33.235Z,16.20
2022-10-22T12:53:00.178Z,16.30
2022-10-22T12:55:27.166Z,16.30
2022-10-22T12:57:56.665Z,16.40
2022-10-22T13:00:28.065Z,16.40
2022-10-22T13:02:56.829Z,16.40
2022-10-22T13:05:25.952Z,16.50
2022-10-22T13:08:03.255Z,16.50
2022-10-22T13:10:40.661Z,16.50
2022-10-22T13:13:07.489Z,16.50
2022-10-22T13:15:36.716Z,16.40
2022-10-22T13:18:17.704Z,16.40
2022-10-22T13:21:02.602Z,16.30
2022-10-22T13:23:30.362Z,16.30
2022-10-22T13:26:00.298Z,16.20
2022-10-22T13:28:28.527Z,16.20
2022-10-22T13:30:56.699Z,16.10
2022-10-22T13:33:34.695Z,16.10
2022-10-22T13:36:02.312Z,16.20
2022-10-22T13:38:29.351Z,16.20
2022-10-22T13:40:56.437Z,16.30
2022-10-22T13:43:23.477Z,16.40
2022-10-22T13:45:53.008Z,16.40
2022-10-22T13:48:21.940Z,16.50
2022-10-22T13:50:49.397Z,16.40
2022-10-22T13:53:18.908Z,16.40
2022-10-22T13:55:45.887Z,16.40
2022-10-22T13:58:13.989Z,16.30
2022-10-22T14:00:46.374Z,16.20
2022-10-22T14:03:16.303Z,16.20
2022-10-22T14:05:43.277Z,16.20
2022-10-22T14:08:14.170Z,16.10
2022-10-22T14:12:53.369Z,16.10
2022-10-22T14:15:24.887Z,16.20
2022-10-22T14:17:56.522Z,16.10
2022-10-22T14:20:25.018Z,16.10
2022-10-22T14:22:51.860Z,16.00
2022-10-22T14:25:20.514Z,15.90
2022-10-22T14:27:47.451Z,15.90
2022-10-22T14:30:15.411Z,16.00
2022-10-22T14:32:42.690Z,16.10
2022-10-22T14:35:14.469Z,16.20
2022-10-22T14:37:41.643Z,16.30
2022-10-22T14:40:09.098Z,16.40
2022-10-22T14:42:40.330Z,16.50
2022-10-22T14:45:11.077Z,16.60
2022-10-22T14:47:37.787Z,16.80
2022-10-22T14:50:04.667Z,16.80
2022-10-22T14:52:31.451Z,16.90
2022-10-22T14:54:58.261Z,16.90
2022-10-22T14:57:25.016Z,16.90
2022-10-22T14:59:54.882Z,16.80
2022-10-22T15:02:21.878Z,16.70
2022-10-22T15:04:48.792Z,16.70
2022-10-22T15:07:18.952Z,16.60
2022-10-22T15:09:45.887Z,16.50
2022-10-22T15:12:12.602Z,16.40
2022-10-22T15:14:39.373Z,16.30
2022-10-22T15:17:06.076Z,16.30
2022-10-22T15:19:32.802Z,16.30
2022-10-22T15:21:59.574Z,16.30
2022-10-22T15:24:26.322Z,16.20
2022-10-22T15:26:54.085Z,16.20
2022-10-22T15:29:20.791Z,16.20
2022-10-22T15:31:52.197Z,16.20
2022-10-22T15:34:27.276Z,16.20
2022-10-22T15:36:55.291Z,16.10
2022-10-22T15:39:23.118Z,16.00
2022-10-22T15:41:50.692Z,16.00
2022-10-22T15:44:18.880Z,16.00
2022-10-22T15:46:45.697Z,16.00
2022-10-22T15:49:13.066Z,16.00
2022-10-22T15:51:40.334Z,16.00
2022-10-22T15:54:10.133Z,16.00
2022-10-22T15:56:37.132Z,15.90
2022-10-22T15:59:06.806Z,15.90
2022-10-22T16:01:34.547Z,15.90
2022-10-22T16:04:02.920Z,15.80
2022-10-22T16:06:31.422Z,15.80
2022-10-22T16:08:59.587Z,15.80
2022-10-22T16:11:27.166Z,15.80
2022-10-22T16:13:56.396Z,15.80
2022-10-22T16:16:24.086Z,15.70
2022-10-22T16:18:51.487Z,15.60
2022-10-22T16:21:19.189Z,15.60
2022-10-22T16:23:46.016Z,15.50
2022-10-22T16:26:14.031Z,15.50
2022-10-22T16:28:41.835Z,15.40
2022-10-22T16:31:10.196Z,15.20
2022-10-22T16:33:41.721Z,15.10
2022-10-22T16:36:14.469Z,15.00
2022-10-22T16:38:41.346Z,15.00
2022-10-22T16:41:13.109Z,15.00
2022-10-22T16:43:40.719Z,14.80
2022-10-22T16:46:07.840Z,14.70
2022-10-22T16:48:35.099Z,14.70
2022-10-22T16:51:05.977Z,15.00
2022-10-22T16:56:19.869Z,15.20
2022-10-22T16:58:48.273Z,15.20
2022-10-22T17:01:17.996Z,15.00
2022-10-22T17:03:45.144Z,14.90
2022-10-22T17:06:12.037Z,14.70
2022-10-22T17:08:39.675Z,14.50
2022-10-22T17:11:07.523Z,14.30
2022-10-22T17:13:34.574Z,14.00
2022-10-22T17:16:02.523Z,13.90
2022-10-22T17:18:29.752Z,13.80
2022-10-22T17:20:58.390Z,13.80
2022-10-22T17:23:31.088Z,13.70
2022-10-22T17:26:02.025Z,13.60
2022-10-22T17:28:29.454Z,13.50
2022-10-22T17:31:04.078Z,13.40
2022-10-22T17:33:31.548Z,13.30
2022-10-22T17:35:58.360Z,13.20
2022-10-22T17:38:25.190Z,13.20
2022-10-22T17:40:52.287Z,13.20
2022-10-22T17:43:19.579Z,13.10
2022-10-22T17:45:46.398Z,13.10
2022-10-22T17:48:13.414Z,13.10
2022-10-22T17:50:46.974Z,13.00
2022-10-22T17:53:16.611Z,13.10
2022-10-22T17:55:43.350Z,13.10
2022-10-22T17:58:10.119Z,13.10
2022-10-22T18:00:36.931Z,13.00
2022-10-22T18:03:03.846Z,13.00
2022-10-22T18:05:30.600Z,13.00
2022-10-22T18:07:57.537Z,13.00
2022-10-22T18:10:24.834Z,13.00
2022-10-22T18:12:51.582Z,13.00
2022-10-22T18:15:18.377Z,13.00
2022-10-22T18:17:47.114Z,13.00
2022-10-22T18:20:14.111Z,13.00
2022-10-22T18:22:42.479Z,12.90
2022-10-22T18:25:09.557Z,13.00
2022-10-22T18:27:37.209Z,12.90
2022-10-22T18:30:04.226Z,13.00
2022-10-22T18:32:33.076Z,13.00
2022-10-22T18:34:59.924Z,13.10
2022-10-22T18:37:26.716Z,13.20
2022-10-22T18:39:53.539Z,13.30
2022-10-22T18:42:20.376Z,13.20
2022-10-22T18:44:47.258Z,13.20
2022-10-22T18:47:14.217Z,13.10
2022-10-22T18:49:40.994Z,13.00
2022-10-22T18:52:07.835Z,12.80
2022-10-22T18:54:35.192Z,12.70
2022-10-22T18:57:05.127Z,12.70
2022-10-22T18:59:31.894Z,12.60
2022-10-22T19:01:59.705Z,12.50
2022-10-22T19:04:33.629Z,12.40
2022-10-22T19:07:00.579Z,12.40
2022-10-22T19:09:27.448Z,12.30
2022-10-22T19:11:54.267Z,12.20
2022-10-22T19:14:22.233Z,12.20
2022-10-22T19:16:49.779Z,12.20
2022-10-22T19:19:19.008Z,12.10
2022-10-22T19:21:46.154Z,12.10
2022-10-22T19:24:14.499Z,12.00
2022-10-22T19:26:41.484Z,12.00
2022-10-22T19:29:14.105Z,12.00
2022-10-22T19:31:41.747Z,12.00
2022-10-22T19:39:05.586Z,11.70
2022-10-22T19:41:32.595Z,11.70
2022-10-22T19:44:00.614Z,11.70
2022-10-22T19:46:28.471Z,11.60
2022-10-22T19:48:57.243Z,11.60
2022-10-22T19:51:29.832Z,11.60
2022-10-22T19:53:58.271Z,11.60
2022-10-22T19:56:25.116Z,11.50
2022-10-22T19:58:51.942Z,11.50
2022-10-22T20:01:18.845Z,11.50
2022-10-22T20:03:45.985Z,11.50
2022-10-22T20:06:14.098Z,11.50
2022-10-22T20:08:41.004Z,11.40
2022-10-22T20:11:09.259Z,11.50
2022-10-22T20:13:36.228Z,11.40
2022-10-22T20:16:03.297Z,11.40
2022-10-22T20:18:30.106Z,11.40
2022-10-22T20:20:56.906Z,11.40
2022-10-22T20:23:23.743Z,11.40
2022-10-22T20:25:50.499Z,11.40
2022-10-22T20:28:17.306Z,11.40
2022-10-22T20:30:44.840Z,11.40
2022-10-22T20:33:16.230Z,11.40
2022-10-22T20:35:43.240Z,11.40
2022-10-22T20:38:12.775Z,11.40
2022-10-22T20:40:39.724Z,11.40
2022-10-22T20:43:09.491Z,11.30
2022-10-22T20:45:38.568Z,11.30
2022-10-22T20:48:06.003Z,11.30
2022-10-22T20:50:33.281Z,11.30
2022-10-22T20:53:00.117Z,11.30
2022-10-22T20:55:27.426Z,11.30
2022-10-22T20:57:54.220Z,11.30
2022-10-22T21:00:21.141Z,11.30
2022-10-22T21:02:47.970Z,11.40
2022-10-22T21:05:14.780Z,11.30
2022-10-22T21:07:41.973Z,11.40
2022-10-22T21:10:09.192Z,11.30
2022-10-22T21:12:36.059Z,11.30
2022-10-22T21:15:03.319Z,11.30
2022-10-22T21:17:30.084Z,11.30
2022-10-22T21:19:56.860Z,11.30
2022-10-22T21:22:23.733Z,11.30
2022-10-22T21:24:50.520Z,11.30
2022-10-22T21:27:17.343Z,11.30
2022-10-22T21:29:44.152Z,11.30
2022-10-22T21:32:11.209Z,11.30
2022-10-22T21:34:39.061Z,11.30
2022-10-22T21:37:06.025Z,11.30
2022-10-22T21:39:32.973Z,11.30
2022-10-22T21:42:00.020Z,11.30
2022-10-22T21:44:27.104Z,11.30
2022-10-22T21:46:53.856Z,11.30
2022-10-22T21:49:20.710Z,11.30
2022-10-22T21:51:47.491Z,11.20
2022-10-22T21:54:14.373Z,11.30
2022-10-22T21:56:41.464Z,11.30
2022-10-22T21:59:08.604Z,11.30
2022-10-22T22:01:35.545Z,11.30
2022-10-22T22:04:02.607Z,11.30
2022-10-22T22:06:33.116Z,11.30
2022-10-22T22:09:01.260Z,11.40
2022-10-22T22:11:28.216Z,11.40
2022-10-22T22:13:55.715Z,11.40
2022-10-22T22:16:27.278Z,11.40
2022-10-22T22:18:59.387Z,11.50
2022-10-22T22:21:26.629Z,11.50
2022-10-22T22:23:54.006Z,11.50
2022-10-22T22:26:25.409Z,11.50
2022-10-22T22:28:55.530Z,11.50
2022-10-22T22:31:23.841Z,11.50
2022-10-22T22:33:51.033Z,11.60
2022-10-22T22:36:17.814Z,11.60
2022-10-22T22:38:44.684Z,11.60
2022-10-22T22:41:11.408Z,11.60
2022-10-22T22:43:38.180Z,11.60
2022-10-22T22:46:06.356Z,11.60
2022-10-22T22:48:33.799Z,11.60
2022-10-22T22:51:01.987Z,11.60
2022-10-22T22:53:29.098Z,11.60
2022-10-22T22:56:06.207Z,11.70
2022-10-22T22:58:33.027Z,11.70
2022-10-22T23:01:13.770Z,11.70
2022-10-22T23:03:40.736Z,11.70
2022-10-22T23:06:07.698Z,11.70
2022-10-22T23:08:34.991Z,11.70
2022-10-22T23:11:06.373Z,11.70
2022-10-22T23:13:33.777Z,11.70
2022-10-22T23:16:04.821Z,11.70
2022-10-22T23:18:31.563Z,11.70
2022-10-22T23:20:58.416Z,11.70
2022-10-22T23:23:25.270Z,11.70
2022-10-22T23:25:54.961Z,11.70
2022-10-22T23:28:23.172Z,11.70
2022-10-22T23:30:50.711Z,11.70
2022-10-22T23:33:19.799Z,11.70
2022-10-22T23:35:47.166Z,11.70
2022-10-22T23:38:14.727Z,11.80
2022-10-22T23:40:42.194Z,11.70
2022-10-22T23:43:09.844Z,11.70
2022-10-22T23:45:37.428Z,11.80
2022-10-22T23:48:05.140Z,11.70
2022-10-22T23:50:32.672Z,11.80
2022-10-22T23:53:00.304Z,11.70
2022-10-22T23:55:28.198Z,11.70
2022-10-22T23:57:55.834Z,11.70
